sensor_id;sensor_type;location;lat;lon;timestamp;temperature;humidity
38380;DHT22;38377;47.418;18.882;2023-09-19T00:00:23;21.60;97.00
38380;DHT22;38377;47.418;18.882;2023-09-19T00:02:55;21.60;97.10
38380;DHT22;38377;47.418;18.882;2023-09-19T00:05:25;21.60;97.20
38380;DHT22;38377;47.418;18.882;2023-09-19T00:07:55;21.50;97.30
38380;DHT22;38377;47.418;18.882;2023-09-19T00:10:21;21.50;97.70
38380;DHT22;38377;47.418;18.882;2023-09-19T00:12:50;21.40;97.90
38380;DHT22;38377;47.418;18.882;2023-09-19T00:15:17;21.40;98.20
38380;DHT22;38377;47.418;18.882;2023-09-19T00:17:43;21.30;98.30
38380;DHT22;38377;47.418;18.882;2023-09-19T00:20:09;21.30;98.60
38380;DHT22;38377;47.418;18.882;2023-09-19T00:22:41;21.30;98.70
38380;DHT22;38377;47.418;18.882;2023-09-19T00:25:11;21.30;98.80
38380;DHT22;38377;47.418;18.882;2023-09-19T00:27:40;21.30;99.00
38380;DHT22;38377;47.418;18.882;2023-09-19T00:30:12;21.30;99.10
38380;DHT22;38377;47.418;18.882;2023-09-19T00:32:47;21.30;99.20
38380;DHT22;38377;47.418;18.882;2023-09-19T00:35:14;21.20;99.40
38380;DHT22;38377;47.418;18.882;2023-09-19T00:37:43;21.20;99.30
38380;DHT22;38377;47.418;18.882;2023-09-19T00:40:09;21.20;99.50
38380;DHT22;38377;47.418;18.882;2023-09-19T00:42:49;21.20;99.60
38380;DHT22;38377;47.418;18.882;2023-09-19T00:45:17;21.10;99.90
38380;DHT22;38377;47.418;18.882;2023-09-19T00:47:49;21.10;99.90
38380;DHT22;38377;47.418;18.882;2023-09-19T00:50:22;21.00;99.90
38380;DHT22;38377;47.418;18.882;2023-09-19T00:52:53;21.00;99.90
38380;DHT22;38377;47.418;18.882;2023-09-19T00:55:21;21.00;99.90
38380;DHT22;38377;47.418;18.882;2023-09-19T00:57:48;21.00;99.90
38380;DHT22;38377;47.418;18.882;2023-09-19T01:00:15;21.00;99.90
38380;DHT22;38377;47.418;18.882;2023-09-19T01:02:42;20.90;99.90
38380;DHT22;38377;47.418;18.882;2023-09-19T01:05:09;20.90;99.90
38380;DHT22;38377;47.418;18.882;2023-09-19T01:07:35;20.90;99.90
38380;DHT22;38377;47.418;18.882;2023-09-19T01:10:06;20.90;99.90
38380;DHT22;38377;47.418;18.882;2023-09-19T01:18:52;20.90;99.90
38380;DHT22;38377;47.418;18.882;2023-09-19T01:27:53;20.90;99.90
38380;DHT22;38377;47.418;18.882;2023-09-19T01:30:27;20.90;99.90
38380;DHT22;38377;47.418;18.882;2023-09-19T01:32:55;20.90;99.90
38380;DHT22;38377;47.418;18.882;2023-09-19T01:35:22;20.90;99.90
38380;DHT22;38377;47.418;18.882;2023-09-19T01:37:48;20.80;99.90
38380;DHT22;38377;47.418;18.882;2023-09-19T01:40:17;20.80;99.90
38380;DHT22;38377;47.418;18.882;2023-09-19T01:42:51;20.80;99.90
38380;DHT22;38377;47.418;18.882;2023-09-19T01:48:40;20.70;99.90
38380;DHT22;38377;47.418;18.882;2023-09-19T01:51:10;20.70;99.90
38380;DHT22;38377;47.418;18.882;2023-09-19T01:53:50;20.70;99.90
38380;DHT22;38377;47.418;18.882;2023-09-19T01:56:25;20.70;99.90
38380;DHT22;38377;47.418;18.882;2023-09-19T01:58:56;20.70;99.90
38380;DHT22;38377;47.418;18.882;2023-09-19T02:01:26;20.70;99.90
38380;DHT22;38377;47.418;18.882;2023-09-19T02:03:53;20.60;99.90
38380;DHT22;38377;47.418;18.882;2023-09-19T02:06:19;20.60;99.90
38380;DHT22;38377;47.418;18.882;2023-09-19T02:08:46;20.60;99.90
38380;DHT22;38377;47.418;18.882;2023-09-19T02:11:13;20.60;99.90
38380;DHT22;38377;47.418;18.882;2023-09-19T02:13:39;20.50;99.90
38380;DHT22;38377;47.418;18.882;2023-09-19T02:16:06;20.50;99.90
38380;DHT22;38377;47.418;18.882;2023-09-19T02:18:32;20.50;99.90
38380;DHT22;38377;47.418;18.882;2023-09-19T02:21:01;20.50;99.90
38380;DHT22;38377;47.418;18.882;2023-09-19T02:23:27;20.40;99.90
38380;DHT22;38377;47.418;18.882;2023-09-19T02:25:59;20.30;99.90
38380;DHT22;38377;47.418;18.882;2023-09-19T02:28:29;20.30;99.90
38380;DHT22;38377;47.418;18.882;2023-09-19T02:30:57;20.20;99.90
38380;DHT22;38377;47.418;18.882;2023-09-19T02:33:23;20.10;99.90
38380;DHT22;38377;47.418;18.882;2023-09-19T02:35:49;20.00;99.90
38380;DHT22;38377;47.418;18.882;2023-09-19T02:38:15;19.80;99.90
38380;DHT22;38377;47.418;18.882;2023-09-19T02:40:46;19.80;99.90
38380;DHT22;38377;47.418;18.882;2023-09-19T02:43:12;19.70;99.90
38380;DHT22;38377;47.418;18.882;2023-09-19T02:45:37;19.60;99.90
38380;DHT22;38377;47.418;18.882;2023-09-19T02:48:03;19.60;99.90
38380;DHT22;38377;47.418;18.882;2023-09-19T02:50:30;19.50;99.90
38380;DHT22;38377;47.418;18.882;2023-09-19T02:52:55;19.50;99.90
38380;DHT22;38377;47.418;18.882;2023-09-19T02:55:21;19.50;99.90
38380;DHT22;38377;47.418;18.882;2023-09-19T02:57:48;19.50;99.90
38380;DHT22;38377;47.418;18.882;2023-09-19T03:00:15;19.60;99.90
38380;DHT22;38377;47.418;18.882;2023-09-19T03:02:41;19.60;99.90
38380;DHT22;38377;47.418;18.882;2023-09-19T03:05:08;19.60;99.90
38380;DHT22;38377;47.418;18.882;2023-09-19T03:07:37;19.60;99.90
38380;DHT22;38377;47.418;18.882;2023-09-19T03:10:05;19.60;99.90
38380;DHT22;38377;47.418;18.882;2023-09-19T03:12:31;19.60;99.90
38380;DHT22;38377;47.418;18.882;2023-09-19T03:14:57;19.60;99.90
38380;DHT22;38377;47.418;18.882;2023-09-19T03:17:23;19.50;99.90
38380;DHT22;38377;47.418;18.882;2023-09-19T03:19:49;19.40;99.90
38380;DHT22;38377;47.418;18.882;2023-09-19T03:22:16;19.50;99.90
38380;DHT22;38377;47.418;18.882;2023-09-19T03:24:41;19.50;99.90
38380;DHT22;38377;47.418;18.882;2023-09-19T03:27:09;19.30;99.90
38380;DHT22;38377;47.418;18.882;2023-09-19T03:29:35;19.30;99.90
38380;DHT22;38377;47.418;18.882;2023-09-19T03:32:01;19.30;99.90
38380;DHT22;38377;47.418;18.882;2023-09-19T03:34:29;19.20;99.90
38380;DHT22;38377;47.418;18.882;2023-09-19T03:36:55;19.20;99.90
38380;DHT22;38377;47.418;18.882;2023-09-19T03:39:22;19.20;99.90
38380;DHT22;38377;47.418;18.882;2023-09-19T03:41:48;19.20;99.90
38380;DHT22;38377;47.418;18.882;2023-09-19T03:44:15;19.10;99.90
38380;DHT22;38377;47.418;18.882;2023-09-19T03:46:40;19.10;99.90
38380;DHT22;38377;47.418;18.882;2023-09-19T03:49:06;19.10;99.90
38380;DHT22;38377;47.418;18.882;2023-09-19T03:51:32;19.10;99.90
38380;DHT22;38377;47.418;18.882;2023-09-19T03:53:59;19.20;99.90
38380;DHT22;38377;47.418;18.882;2023-09-19T03:56:25;19.20;99.90
38380;DHT22;38377;47.418;18.882;2023-09-19T03:58:51;19.30;99.90
38380;DHT22;38377;47.418;18.882;2023-09-19T04:01:17;19.30;99.90
38380;DHT22;38377;47.418;18.882;2023-09-19T04:03:44;19.30;99.90
38380;DHT22;38377;47.418;18.882;2023-09-19T04:06:16;19.40;99.90
38380;DHT22;38377;47.418;18.882;2023-09-19T04:08:42;19.30;99.90
38380;DHT22;38377;47.418;18.882;2023-09-19T04:11:09;19.30;99.90
38380;DHT22;38377;47.418;18.882;2023-09-19T04:13:35;19.30;99.90
38380;DHT22;38377;47.418;18.882;2023-09-19T04:16:00;19.40;99.90
38380;DHT22;38377;47.418;18.882;2023-09-19T04:18:26;19.40;99.90
38380;DHT22;38377;47.418;18.882;2023-09-19T04:20:52;19.40;99.90
38380;DHT22;38377;47.418;18.882;2023-09-19T04:23:18;19.50;99.90
38380;DHT22;38377;47.418;18.882;2023-09-19T04:25:47;19.60;99.90
38380;DHT22;38377;47.418;18.882;2023-09-19T04:28:13;19.60;99.90
38380;DHT22;38377;47.418;18.882;2023-09-19T04:30:39;19.70;99.90
38380;DHT22;38377;47.418;18.882;2023-09-19T04:33:08;19.70;99.90
38380;DHT22;38377;47.418;18.882;2023-09-19T04:35:34;19.70;99.90
38380;DHT22;38377;47.418;18.882;2023-09-19T04:38:00;19.70;99.90
38380;DHT22;38377;47.418;18.882;2023-09-19T04:40:26;19.60;99.90
38380;DHT22;38377;47.418;18.882;2023-09-19T04:42:58;19.50;99.90
38380;DHT22;38377;47.418;18.882;2023-09-19T04:45:24;19.40;99.90
38380;DHT22;38377;47.418;18.882;2023-09-19T04:47:50;19.20;99.90
38380;DHT22;38377;47.418;18.882;2023-09-19T04:50:16;19.10;99.90
38380;DHT22;38377;47.418;18.882;2023-09-19T04:52:43;18.90;99.90
38380;DHT22;38377;47.418;18.882;2023-09-19T04:55:13;18.80;99.90
38380;DHT22;38377;47.418;18.882;2023-09-19T04:57:46;18.80;99.90
38380;DHT22;38377;47.418;18.882;2023-09-19T05:00:16;18.70;99.90
38380;DHT22;38377;47.418;18.882;2023-09-19T05:02:45;18.70;99.90
38380;DHT22;38377;47.418;18.882;2023-09-19T05:05:11;18.60;99.90
38380;DHT22;38377;47.418;18.882;2023-09-19T05:07:41;18.50;99.90
38380;DHT22;38377;47.418;18.882;2023-09-19T05:10:07;18.40;99.90
38380;DHT22;38377;47.418;18.882;2023-09-19T05:12:34;18.30;99.90
38380;DHT22;38377;47.418;18.882;2023-09-19T05:15:02;18.20;99.90
38380;DHT22;38377;47.418;18.882;2023-09-19T05:17:28;18.20;99.90
38380;DHT22;38377;47.418;18.882;2023-09-19T05:19:54;18.20;99.90
38380;DHT22;38377;47.418;18.882;2023-09-19T05:22:19;18.20;99.90
38380;DHT22;38377;47.418;18.882;2023-09-19T05:24:45;18.10;99.90
38380;DHT22;38377;47.418;18.882;2023-09-19T05:27:14;18.10;99.90
38380;DHT22;38377;47.418;18.882;2023-09-19T05:29:45;18.10;99.90
38380;DHT22;38377;47.418;18.882;2023-09-19T05:32:11;18.10;99.90
38380;DHT22;38377;47.418;18.882;2023-09-19T05:34:38;18.00;99.90
38380;DHT22;38377;47.418;18.882;2023-09-19T05:37:04;18.00;99.90
38380;DHT22;38377;47.418;18.882;2023-09-19T05:39:33;18.00;99.90
38380;DHT22;38377;47.418;18.882;2023-09-19T05:42:00;18.00;99.90
38380;DHT22;38377;47.418;18.882;2023-09-19T05:44:26;18.10;99.90
38380;DHT22;38377;47.418;18.882;2023-09-19T05:46:53;18.00;99.90
38380;DHT22;38377;47.418;18.882;2023-09-19T05:49:19;18.00;99.90
38380;DHT22;38377;47.418;18.882;2023-09-19T05:51:47;18.00;99.90
38380;DHT22;38377;47.418;18.882;2023-09-19T05:54:12;17.90;99.90
38380;DHT22;38377;47.418;18.882;2023-09-19T05:56:38;17.90;99.90
38380;DHT22;38377;47.418;18.882;2023-09-19T05:59:04;17.90;99.90
38380;DHT22;38377;47.418;18.882;2023-09-19T06:01:30;17.80;99.90
38380;DHT22;38377;47.418;18.882;2023-09-19T06:03:58;17.80;99.90
38380;DHT22;38377;47.418;18.882;2023-09-19T06:06:26;17.80;99.90
38380;DHT22;38377;47.418;18.882;2023-09-19T06:08:52;17.80;99.90
38380;DHT22;38377;47.418;18.882;2023-09-19T06:11:17;17.70;99.90
38380;DHT22;38377;47.418;18.882;2023-09-19T06:13:46;17.70;99.90
38380;DHT22;38377;47.418;18.882;2023-09-19T06:16:13;17.70;99.90
38380;DHT22;38377;47.418;18.882;2023-09-19T06:18:38;17.70;99.90
38380;DHT22;38377;47.418;18.882;2023-09-19T06:21:05;17.60;99.90
38380;DHT22;38377;47.418;18.882;2023-09-19T06:23:31;17.60;99.90
38380;DHT22;38377;47.418;18.882;2023-09-19T06:25:57;17.50;99.90
38380;DHT22;38377;47.418;18.882;2023-09-19T06:28:23;17.50;99.90
38380;DHT22;38377;47.418;18.882;2023-09-19T06:30:51;17.40;99.90
38380;DHT22;38377;47.418;18.882;2023-09-19T06:33:18;17.40;99.90
38380;DHT22;38377;47.418;18.882;2023-09-19T06:35:47;17.30;99.90
38380;DHT22;38377;47.418;18.882;2023-09-19T06:38:14;17.20;99.90
38380;DHT22;38377;47.418;18.882;2023-09-19T06:40:41;17.20;99.90
38380;DHT22;38377;47.418;18.882;2023-09-19T06:43:10;17.10;99.90
38380;DHT22;38377;47.418;18.882;2023-09-19T06:45:36;17.10;99.90
38380;DHT22;38377;47.418;18.882;2023-09-19T06:48:02;17.00;99.90
38380;DHT22;38377;47.418;18.882;2023-09-19T06:50:28;16.90;99.90
38380;DHT22;38377;47.418;18.882;2023-09-19T06:52:57;16.90;99.90
38380;DHT22;38377;47.418;18.882;2023-09-19T06:55:25;16.90;99.90
38380;DHT22;38377;47.418;18.882;2023-09-19T06:57:54;16.90;99.90
38380;DHT22;38377;47.418;18.882;2023-09-19T07:00:20;16.80;99.90
38380;DHT22;38377;47.418;18.882;2023-09-19T07:03:01;16.80;99.90
38380;DHT22;38377;47.418;18.882;2023-09-19T07:05:32;16.80;99.90
38380;DHT22;38377;47.418;18.882;2023-09-19T07:08:01;16.80;99.90
38380;DHT22;38377;47.418;18.882;2023-09-19T07:10:28;16.80;99.90
38380;DHT22;38377;47.418;18.882;2023-09-19T07:13:02;16.70;99.90
38380;DHT22;38377;47.418;18.882;2023-09-19T07:15:29;16.70;99.90
38380;DHT22;38377;47.418;18.882;2023-09-19T07:17:56;16.70;99.90
38380;DHT22;38377;47.418;18.882;2023-09-19T07:20:23;16.70;99.90
38380;DHT22;38377;47.418;18.882;2023-09-19T07:22:53;16.70;99.90
38380;DHT22;38377;47.418;18.882;2023-09-19T07:25:35;16.80;99.90
38380;DHT22;38377;47.418;18.882;2023-09-19T07:28:04;16.70;99.90
38380;DHT22;38377;47.418;18.882;2023-09-19T07:30:30;16.70;99.90
38380;DHT22;38377;47.418;18.882;2023-09-19T07:32:56;16.70;99.90
38380;DHT22;38377;47.418;18.882;2023-09-19T07:35:24;16.70;99.90
38380;DHT22;38377;47.418;18.882;2023-09-19T07:37:51;16.80;99.90
38380;DHT22;38377;47.418;18.882;2023-09-19T07:40:20;16.80;99.90
38380;DHT22;38377;47.418;18.882;2023-09-19T07:42:46;16.80;99.90
38380;DHT22;38377;47.418;18.882;2023-09-19T07:45:12;16.80;99.90
38380;DHT22;38377;47.418;18.882;2023-09-19T07:47:50;16.80;99.90
38380;DHT22;38377;47.418;18.882;2023-09-19T07:50:17;16.90;99.90
38380;DHT22;38377;47.418;18.882;2023-09-19T07:52:50;16.90;99.90
38380;DHT22;38377;47.418;18.882;2023-09-19T07:55:19;16.90;99.90
38380;DHT22;38377;47.418;18.882;2023-09-19T07:57:49;17.00;99.90
38380;DHT22;38377;47.418;18.882;2023-09-19T08:00:15;17.00;99.90
38380;DHT22;38377;47.418;18.882;2023-09-19T08:02:41;17.10;99.90
38380;DHT22;38377;47.418;18.882;2023-09-19T08:05:11;17.10;99.90
38380;DHT22;38377;47.418;18.882;2023-09-19T08:07:38;17.10;99.90
38380;DHT22;38377;47.418;18.882;2023-09-19T08:16:17;17.20;99.90
38380;DHT22;38377;47.418;18.882;2023-09-19T08:18:48;17.20;99.90
38380;DHT22;38377;47.418;18.882;2023-09-19T08:21:35;17.20;99.90
38380;DHT22;38377;47.418;18.882;2023-09-19T08:27:00;17.30;99.90
38380;DHT22;38377;47.418;18.882;2023-09-19T08:29:32;17.30;99.90
38380;DHT22;38377;47.418;18.882;2023-09-19T08:31:58;17.30;99.90
38380;DHT22;38377;47.418;18.882;2023-09-19T08:34:24;17.20;99.90
38380;DHT22;38377;47.418;18.882;2023-09-19T08:36:54;17.20;99.90
38380;DHT22;38377;47.418;18.882;2023-09-19T08:39:55;17.20;99.90
38380;DHT22;38377;47.418;18.882;2023-09-19T08:42:21;17.20;99.90
38380;DHT22;38377;47.418;18.882;2023-09-19T08:44:49;17.20;99.90
38380;DHT22;38377;47.418;18.882;2023-09-19T08:47:16;17.20;99.90
38380;DHT22;38377;47.418;18.882;2023-09-19T08:50:08;17.20;99.90
38380;DHT22;38377;47.418;18.882;2023-09-19T08:52:44;17.30;99.90
38380;DHT22;38377;47.418;18.882;2023-09-19T08:55:13;17.30;99.90
38380;DHT22;38377;47.418;18.882;2023-09-19T08:57:49;17.40;99.90
38380;DHT22;38377;47.418;18.882;2023-09-19T09:00:16;17.40;99.90
38380;DHT22;38377;47.418;18.882;2023-09-19T09:02:47;17.40;99.90
38380;DHT22;38377;47.418;18.882;2023-09-19T09:05:15;17.40;99.90
38380;DHT22;38377;47.418;18.882;2023-09-19T09:07:42;17.40;99.90
38380;DHT22;38377;47.418;18.882;2023-09-19T09:10:09;17.50;99.90
38380;DHT22;38377;47.418;18.882;2023-09-19T09:12:35;17.50;99.90
38380;DHT22;38377;47.418;18.882;2023-09-19T09:15:03;17.50;99.90
38380;DHT22;38377;47.418;18.882;2023-09-19T09:17:30;17.60;99.90
38380;DHT22;38377;47.418;18.882;2023-09-19T09:19:56;17.60;99.90
38380;DHT22;38377;47.418;18.882;2023-09-19T09:22:22;17.60;99.90
38380;DHT22;38377;47.418;18.882;2023-09-19T09:24:53;17.60;99.90
38380;DHT22;38377;47.418;18.882;2023-09-19T09:27:19;17.60;99.90
38380;DHT22;38377;47.418;18.882;2023-09-19T09:29:46;17.70;99.90
38380;DHT22;38377;47.418;18.882;2023-09-19T09:32:29;17.70;99.90
38380;DHT22;38377;47.418;18.882;2023-09-19T09:35:00;17.60;99.90
38380;DHT22;38377;47.418;18.882;2023-09-19T09:37:27;17.60;99.90
38380;DHT22;38377;47.418;18.882;2023-09-19T09:40:02;17.60;99.90
38380;DHT22;38377;47.418;18.882;2023-09-19T09:42:39;17.60;99.90
38380;DHT22;38377;47.418;18.882;2023-09-19T09:45:23;17.70;99.90
38380;DHT22;38377;47.418;18.882;2023-09-19T09:48:03;17.70;99.90
38380;DHT22;38377;47.418;18.882;2023-09-19T09:50:38;17.80;99.90
38380;DHT22;38377;47.418;18.882;2023-09-19T09:53:27;17.80;99.90
38380;DHT22;38377;47.418;18.882;2023-09-19T09:56:05;17.90;99.90
38380;DHT22;38377;47.418;18.882;2023-09-19T09:58:51;18.10;99.90
38380;DHT22;38377;47.418;18.882;2023-09-19T10:01:21;18.50;99.90
38380;DHT22;38377;47.418;18.882;2023-09-19T10:03:57;18.60;99.90
38380;DHT22;38377;47.418;18.882;2023-09-19T10:06:23;18.70;99.90
38380;DHT22;38377;47.418;18.882;2023-09-19T10:09:02;18.90;99.90
38380;DHT22;38377;47.418;18.882;2023-09-19T10:11:45;18.90;99.90
38380;DHT22;38377;47.418;18.882;2023-09-19T10:14:13;18.90;99.90
38380;DHT22;38377;47.418;18.882;2023-09-19T10:16:48;18.90;99.90
38380;DHT22;38377;47.418;18.882;2023-09-19T10:19:45;18.90;99.90
38380;DHT22;38377;47.418;18.882;2023-09-19T10:22:14;18.90;99.90
38380;DHT22;38377;47.418;18.882;2023-09-19T10:24:42;18.90;99.90
38380;DHT22;38377;47.418;18.882;2023-09-19T10:27:10;18.90;99.90
38380;DHT22;38377;47.418;18.882;2023-09-19T10:29:39;18.90;99.90
38380;DHT22;38377;47.418;18.882;2023-09-19T10:32:06;19.00;99.90
38380;DHT22;38377;47.418;18.882;2023-09-19T10:34:35;19.00;99.90
38380;DHT22;38377;47.418;18.882;2023-09-19T10:37:02;18.90;99.90
38380;DHT22;38377;47.418;18.882;2023-09-19T10:39:32;18.90;99.90
38380;DHT22;38377;47.418;18.882;2023-09-19T10:42:02;18.90;99.90
38380;DHT22;38377;47.418;18.882;2023-09-19T10:44:32;18.90;99.90
38380;DHT22;38377;47.418;18.882;2023-09-19T10:46:58;18.80;99.90
38380;DHT22;38377;47.418;18.882;2023-09-19T10:49:25;18.90;99.90
38380;DHT22;38377;47.418;18.882;2023-09-19T10:51:56;19.00;99.90
38380;DHT22;38377;47.418;18.882;2023-09-19T10:54:31;19.10;99.90
38380;DHT22;38377;47.418;18.882;2023-09-19T10:56:59;19.10;99.90
38380;DHT22;38377;47.418;18.882;2023-09-19T10:59:26;19.30;99.90
38380;DHT22;38377;47.418;18.882;2023-09-19T11:02:00;19.30;99.90
38380;DHT22;38377;47.418;18.882;2023-09-19T11:04:40;19.50;99.90
38380;DHT22;38377;47.418;18.882;2023-09-19T11:07:11;19.80;99.90
38380;DHT22;38377;47.418;18.882;2023-09-19T11:09:50;19.90;99.90
38380;DHT22;38377;47.418;18.882;2023-09-19T11:15:02;20.60;99.90
38380;DHT22;38377;47.418;18.882;2023-09-19T11:17:42;20.90;99.90
38380;DHT22;38377;47.418;18.882;2023-09-19T11:30:47;21.50;99.90
38380;DHT22;38377;47.418;18.882;2023-09-19T11:33:32;21.50;99.90
38380;DHT22;38377;47.418;18.882;2023-09-19T11:36:14;21.10;99.90
38380;DHT22;38377;47.418;18.882;2023-09-19T11:46:17;21.20;99.90
38380;DHT22;38377;47.418;18.882;2023-09-19T11:48:50;21.60;99.90
38380;DHT22;38377;47.418;18.882;2023-09-19T11:51:20;21.50;99.90
38380;DHT22;38377;47.418;18.882;2023-09-19T11:53:57;21.40;99.90
38380;DHT22;38377;47.418;18.882;2023-09-19T11:56:26;21.00;99.90
38380;DHT22;38377;47.418;18.882;2023-09-19T11:58:57;20.90;99.90
38380;DHT22;38377;47.418;18.882;2023-09-19T12:01:29;21.10;99.90
38380;DHT22;38377;47.418;18.882;2023-09-19T12:03:57;21.20;99.90
38380;DHT22;38377;47.418;18.882;2023-09-19T12:06:28;21.30;99.90
38380;DHT22;38377;47.418;18.882;2023-09-19T12:08:55;21.40;99.90
38380;DHT22;38377;47.418;18.882;2023-09-19T12:11:23;21.50;99.90
38380;DHT22;38377;47.418;18.882;2023-09-19T12:13:49;21.70;99.90
38380;DHT22;38377;47.418;18.882;2023-09-19T12:16:16;22.10;99.90
38380;DHT22;38377;47.418;18.882;2023-09-19T12:18:45;22.30;99.90
38380;DHT22;38377;47.418;18.882;2023-09-19T12:21:32;22.30;99.90
38380;DHT22;38377;47.418;18.882;2023-09-19T12:24:04;22.40;99.90
38380;DHT22;38377;47.418;18.882;2023-09-19T12:26:41;22.30;99.90
38380;DHT22;38377;47.418;18.882;2023-09-19T12:29:12;22.00;99.90
38380;DHT22;38377;47.418;18.882;2023-09-19T12:31:56;21.80;99.90
38380;DHT22;38377;47.418;18.882;2023-09-19T12:34:32;21.90;99.90
38380;DHT22;38377;47.418;18.882;2023-09-19T12:37:08;22.20;99.90
38380;DHT22;38377;47.418;18.882;2023-09-19T12:39:44;22.30;99.90
38380;DHT22;38377;47.418;18.882;2023-09-19T12:42:22;22.30;99.90
38380;DHT22;38377;47.418;18.882;2023-09-19T12:44:49;22.30;99.90
38380;DHT22;38377;47.418;18.882;2023-09-19T12:47:20;22.40;99.90
38380;DHT22;38377;47.418;18.882;2023-09-19T12:50:14;22.60;99.90
38380;DHT22;38377;47.418;18.882;2023-09-19T12:52:48;22.80;99.90
38380;DHT22;38377;47.418;18.882;2023-09-19T12:58:11;22.40;99.90
38380;DHT22;38377;47.418;18.882;2023-09-19T13:00:45;22.20;99.90
38380;DHT22;38377;47.418;18.882;2023-09-19T13:05:52;22.10;99.90
38380;DHT22;38377;47.418;18.882;2023-09-19T13:08:40;22.00;99.90
38380;DHT22;38377;47.418;18.882;2023-09-19T13:11:15;22.20;99.90
38380;DHT22;38377;47.418;18.882;2023-09-19T13:16:24;22.40;99.90
38380;DHT22;38377;47.418;18.882;2023-09-19T13:19:01;22.20;99.90
38380;DHT22;38377;47.418;18.882;2023-09-19T13:21:32;22.00;99.90
38380;DHT22;38377;47.418;18.882;2023-09-19T13:24:38;21.90;99.90
38380;DHT22;38377;47.418;18.882;2023-09-19T13:27:06;21.80;99.90
38380;DHT22;38377;47.418;18.882;2023-09-19T13:29:33;21.80;99.90
38380;DHT22;38377;47.418;18.882;2023-09-19T13:31:59;21.90;99.90
38380;DHT22;38377;47.418;18.882;2023-09-19T13:34:27;21.90;99.90
38380;DHT22;38377;47.418;18.882;2023-09-19T13:36:58;21.90;99.90
38380;DHT22;38377;47.418;18.882;2023-09-19T13:39:26;21.80;99.90
38380;DHT22;38377;47.418;18.882;2023-09-19T13:41:52;21.80;99.90
38380;DHT22;38377;47.418;18.882;2023-09-19T13:44:18;21.80;99.90
38380;DHT22;38377;47.418;18.882;2023-09-19T13:46:45;21.80;99.90
38380;DHT22;38377;47.418;18.882;2023-09-19T13:49:11;21.90;99.90
38380;DHT22;38377;47.418;18.882;2023-09-19T13:51:37;22.10;99.90
38380;DHT22;38377;47.418;18.882;2023-09-19T13:54:06;22.40;99.90
38380;DHT22;38377;47.418;18.882;2023-09-19T13:56:31;22.40;99.90
38380;DHT22;38377;47.418;18.882;2023-09-19T13:58:57;22.20;99.90
38380;DHT22;38377;47.418;18.882;2023-09-19T14:01:24;21.90;99.90
38380;DHT22;38377;47.418;18.882;2023-09-19T14:03:51;21.80;99.90
38380;DHT22;38377;47.418;18.882;2023-09-19T14:06:19;21.70;99.90
38380;DHT22;38377;47.418;18.882;2023-09-19T14:08:45;21.60;99.90
38380;DHT22;38377;47.418;18.882;2023-09-19T14:11:13;21.50;99.90
38380;DHT22;38377;47.418;18.882;2023-09-19T14:13:39;21.50;99.90
38380;DHT22;38377;47.418;18.882;2023-09-19T14:16:06;21.50;99.90
38380;DHT22;38377;47.418;18.882;2023-09-19T14:18:35;21.50;99.90
38380;DHT22;38377;47.418;18.882;2023-09-19T14:21:05;21.50;99.90
38380;DHT22;38377;47.418;18.882;2023-09-19T14:23:40;21.50;99.90
38380;DHT22;38377;47.418;18.882;2023-09-19T14:26:07;21.70;99.90
38380;DHT22;38377;47.418;18.882;2023-09-19T14:28:33;21.80;99.90
38380;DHT22;38377;47.418;18.882;2023-09-19T14:31:06;21.80;99.90
38380;DHT22;38377;47.418;18.882;2023-09-19T14:33:32;21.90;99.90
38380;DHT22;38377;47.418;18.882;2023-09-19T14:35:58;22.00;99.90
38380;DHT22;38377;47.418;18.882;2023-09-19T14:38:23;22.10;99.90
38380;DHT22;38377;47.418;18.882;2023-09-19T14:41:02;22.10;99.90
38380;DHT22;38377;47.418;18.882;2023-09-19T14:43:28;22.10;99.90
38380;DHT22;38377;47.418;18.882;2023-09-19T14:46:07;22.00;99.90
38380;DHT22;38377;47.418;18.882;2023-09-19T14:48:36;22.00;99.90
38380;DHT22;38377;47.418;18.882;2023-09-19T14:51:06;22.00;99.90
38380;DHT22;38377;47.418;18.882;2023-09-19T14:53:34;22.00;99.90
38380;DHT22;38377;47.418;18.882;2023-09-19T14:56:05;22.10;99.90
38380;DHT22;38377;47.418;18.882;2023-09-19T14:58:31;22.10;99.90
38380;DHT22;38377;47.418;18.882;2023-09-19T15:01:10;22.20;99.90
38380;DHT22;38377;47.418;18.882;2023-09-19T15:03:36;22.10;99.90
38380;DHT22;38377;47.418;18.882;2023-09-19T15:06:03;22.00;99.90
38380;DHT22;38377;47.418;18.882;2023-09-19T15:08:31;21.90;99.90
38380;DHT22;38377;47.418;18.882;2023-09-19T15:10:57;21.80;99.90
38380;DHT22;38377;47.418;18.882;2023-09-19T15:13:24;21.70;99.90
38380;DHT22;38377;47.418;18.882;2023-09-19T15:18:28;21.50;99.90
38380;DHT22;38377;47.418;18.882;2023-09-19T15:20:55;21.60;99.90
38380;DHT22;38377;47.418;18.882;2023-09-19T15:23:21;21.60;99.90
38380;DHT22;38377;47.418;18.882;2023-09-19T15:25:49;21.60;99.90
38380;DHT22;38377;47.418;18.882;2023-09-19T15:28:16;21.70;99.90
38380;DHT22;38377;47.418;18.882;2023-09-19T15:30:42;21.70;99.90
38380;DHT22;38377;47.418;18.882;2023-09-19T15:33:07;21.70;99.90
38380;DHT22;38377;47.418;18.882;2023-09-19T15:35:33;21.60;99.90
38380;DHT22;38377;47.418;18.882;2023-09-19T15:37:58;21.60;99.90
38380;DHT22;38377;47.418;18.882;2023-09-19T15:40:26;21.40;99.90
38380;DHT22;38377;47.418;18.882;2023-09-19T15:42:54;21.30;99.90
38380;DHT22;38377;47.418;18.882;2023-09-19T15:45:21;21.30;99.90
38380;DHT22;38377;47.418;18.882;2023-09-19T15:47:47;21.30;99.90
38380;DHT22;38377;47.418;18.882;2023-09-19T15:50:13;21.30;99.90
38380;DHT22;38377;47.418;18.882;2023-09-19T15:52:41;21.30;99.90
38380;DHT22;38377;47.418;18.882;2023-09-19T15:55:07;21.30;99.90
38380;DHT22;38377;47.418;18.882;2023-09-19T15:57:36;21.20;99.90
38380;DHT22;38377;47.418;18.882;2023-09-19T16:00:02;21.20;99.90
38380;DHT22;38377;47.418;18.882;2023-09-19T16:02:30;21.10;99.90
38380;DHT22;38377;47.418;18.882;2023-09-19T16:04:55;21.00;99.90
38380;DHT22;38377;47.418;18.882;2023-09-19T16:07:21;20.90;99.90
38380;DHT22;38377;47.418;18.882;2023-09-19T16:09:47;20.80;99.90
38380;DHT22;38377;47.418;18.882;2023-09-19T16:12:12;20.70;99.90
38380;DHT22;38377;47.418;18.882;2023-09-19T16:14:40;20.60;99.90
38380;DHT22;38377;47.418;18.882;2023-09-19T16:17:05;20.60;99.90
38380;DHT22;38377;47.418;18.882;2023-09-19T16:19:33;20.50;99.90
38380;DHT22;38377;47.418;18.882;2023-09-19T16:21:59;20.40;99.90
38380;DHT22;38377;47.418;18.882;2023-09-19T16:24:25;20.30;99.90